Time;durP1;ratioP1;P1;durP2;ratioP2;P2;SDS_P1;SDS_P2;PMS_P1;PMS_P2;Temp;Humidity;BMP_temperature;BMP_pressure;BME280_temperature;BME280_humidity;BME280_pressure;Samples;Min_cycle;Max_cycle;Signal;HPM_P1;HPM_P2
2021/01/21 00:02:16;;;;;;;7.67;6.27;;;3.00;99.90;;;;;;5033180;28;20294;-45
2021/01/21 00:04:41;;;;;;;7.97;7.13;;;2.90;99.90;;;;;;5035295;28;20192;-49
2021/01/21 00:07:07;;;;;;;9.57;6.90;;;2.90;99.90;;;;;;5034434;28;20553;-49
2021/01/21 00:09:32;;;;;;;8.40;7.00;;;2.90;99.90;;;;;;5032147;28;20211;-46
2021/01/21 00:11:58;;;;;;;7.80;6.83;;;2.90;99.90;;;;;;5034149;28;20603;-46
2021/01/21 00:14:24;;;;;;;7.47;6.43;;;2.90;99.90;;;;;;5034758;28;20628;-48
2021/01/21 00:16:49;;;;;;;8.10;6.57;;;2.90;99.90;;;;;;5036910;28;20183;-48
2021/01/21 00:19:15;;;;;;;8.67;7.37;;;3.00;99.90;;;;;;5032763;28;20215;-49
2021/01/21 00:21:40;;;;;;;7.83;6.47;;;3.00;99.90;;;;;;5035663;28;20199;-50
2021/01/21 00:24:06;;;;;;;7.33;6.50;;;3.00;99.90;;;;;;5033948;28;20187;-46
2021/01/21 00:26:33;;;;;;;7.00;5.60;;;3.00;99.90;;;;;;5034278;28;20180;-51
2021/01/21 00:28:58;;;;;;;8.43;6.83;;;3.00;99.90;;;;;;5031610;28;20220;-49
2021/01/21 00:31:24;;;;;;;8.00;6.63;;;3.00;99.90;;;;;;5034887;28;20500;-51
2021/01/21 00:33:49;;;;;;;8.23;5.87;;;3.00;99.90;;;;;;5018185;28;20187;-52
2021/01/21 00:36:15;;;;;;;6.60;5.83;;;3.00;99.90;;;;;;5035052;28;20203;-46
2021/01/21 00:38:41;;;;;;;6.97;5.70;;;3.00;99.90;;;;;;5033563;28;20196;-48
2021/01/21 00:41:06;;;;;;;7.73;6.23;;;3.00;99.90;;;;;;5036766;28;20192;-47
2021/01/21 00:43:32;;;;;;;6.87;5.73;;;3.00;99.90;;;;;;5033560;28;20183;-46
2021/01/21 00:45:57;;;;;;;6.00;5.40;;;2.80;99.90;;;;;;5035532;28;20258;-45
2021/01/21 00:48:23;;;;;;;7.10;6.10;;;2.80;99.90;;;;;;5034284;28;20212;-51
2021/01/21 00:50:49;;;;;;;7.43;6.23;;;2.80;99.90;;;;;;5032884;28;20585;-49
2021/01/21 00:53:15;;;;;;;7.03;6.10;;;2.80;99.90;;;;;;5034374;28;20725;-48
2021/01/21 00:55:40;;;;;;;7.20;5.80;;;2.80;99.90;;;;;;5035085;28;20251;-50
2021/01/21 00:58:06;;;;;;;6.13;5.53;;;2.80;99.90;;;;;;5033578;28;20521;-51
2021/01/21 01:00:31;;;;;;;8.67;6.50;;;2.80;99.90;;;;;;5032160;28;20275;-50
2021/01/21 01:02:58;;;;;;;6.97;5.60;;;2.80;99.90;;;;;;5034244;28;20556;-46
2021/01/21 01:05:23;;;;;;;6.50;5.17;;;2.80;99.90;;;;;;5034499;28;20187;-48
2021/01/21 01:07:49;;;;;;;6.47;5.60;;;2.80;99.90;;;;;;5034645;28;20518;-52
2021/01/21 01:10:15;;;;;;;10.20;7.37;;;2.70;99.90;;;;;;5033447;28;20877;-48
2021/01/21 01:12:41;;;;;;;9.63;6.93;;;2.60;99.90;;;;;;5034481;28;20179;-45
2021/01/21 01:15:08;;;;;;;6.93;5.53;;;2.50;99.90;;;;;;5034463;28;20251;-47
2021/01/21 01:17:34;;;;;;;6.33;5.27;;;2.50;99.90;;;;;;5034141;28;20639;-51
2021/01/21 01:20:00;;;;;;;10.33;6.57;;;2.50;99.90;;;;;;5032213;28;20450;-48
2021/01/21 01:22:26;;;;;;;10.43;7.30;;;2.60;99.90;;;;;;5034677;28;21433;-45
2021/01/21 01:24:51;;;;;;;8.17;6.40;;;2.60;99.90;;;;;;5034431;28;20187;-55
2021/01/21 01:27:17;;;;;;;10.43;7.53;;;2.60;99.90;;;;;;5035457;28;20240;-45
2021/01/21 01:29:46;;;;;;;8.27;7.37;;;2.60;99.90;;;;;;5032449;28;20258;-45
2021/01/21 01:32:12;;;;;;;8.80;7.73;;;2.60;99.90;;;;;;5034756;28;20207;-50
2021/01/21 01:34:38;;;;;;;10.10;8.30;;;2.60;99.90;;;;;;5034176;28;20505;-45
2021/01/21 01:37:04;;;;;;;9.27;7.57;;;2.60;99.90;;;;;;5034037;28;20196;-45
2021/01/21 01:39:30;;;;;;;8.37;6.43;;;2.60;99.90;;;;;;5031828;28;20434;-49
2021/01/21 01:41:56;;;;;;;8.23;7.20;;;2.60;99.90;;;;;;5033459;28;20422;-52
2021/01/21 01:44:21;;;;;;;8.67;6.70;;;2.50;99.90;;;;;;5033911;28;20419;-47
2021/01/21 01:46:48;;;;;;;8.37;6.53;;;2.40;99.90;;;;;;5033851;28;20176;-48
2021/01/21 01:49:13;;;;;;;7.53;5.90;;;2.20;99.90;;;;;;5031140;28;20211;-46
2021/01/21 01:51:44;;;;;;;6.80;5.70;;;2.20;99.90;;;;;;5034115;28;20462;-47
2021/01/21 01:54:10;;;;;;;7.33;5.83;;;2.10;99.90;;;;;;5035396;28;20608;-50
2021/01/21 01:56:35;;;;;;;9.37;7.00;;;2.00;99.90;;;;;;5039094;28;20413;-51
2021/01/21 01:59:01;;;;;;;12.93;8.63;;;2.10;99.90;;;;;;5035865;28;20458;-47
2021/01/21 02:01:28;;;;;;;13.53;8.70;;;2.00;99.90;;;;;;5037730;28;20187;-48
2021/01/21 02:03:53;;;;;;;11.03;7.97;;;2.00;99.90;;;;;;5038484;28;20211;-46
2021/01/21 02:06:19;;;;;;;8.70;6.70;;;1.90;99.90;;;;;;5037599;28;20498;-50
2021/01/21 02:08:45;;;;;;;8.07;7.17;;;1.80;99.90;;;;;;5036351;28;20659;-51
2021/01/21 02:11:39;;;;;;;8.20;6.70;;;1.70;99.90;;;;;;5035377;28;20214;-48
2021/01/21 02:14:14;;;;;;;8.27;7.00;;;1.70;99.90;;;;;;5037451;28;20215;-50
2021/01/21 02:16:43;;;;;;;8.10;6.90;;;1.60;99.90;;;;;;5038067;28;20406;-48
2021/01/21 02:19:49;;;;;;;8.37;6.20;;;1.50;99.90;;;;;;5038282;28;20453;-47
2021/01/21 02:22:39;;;;;;;8.50;7.23;;;1.60;99.90;;;;;;5037930;28;20429;-46
2021/01/21 02:25:09;;;;;;;6.90;6.20;;;1.40;99.90;;;;;;5036901;28;20493;-45
2021/01/21 02:28:24;;;;;;;8.80;6.50;;;1.30;99.90;;;;;;5039278;28;20422;-49
2021/01/21 02:30:49;;;;;;;7.93;6.47;;;1.20;99.90;;;;;;5035325;28;20470;-50
2021/01/21 02:33:37;;;;;;;8.67;6.60;;;1.20;99.90;;;;;;5039539;28;20407;-46
2021/01/21 02:36:04;;;;;;;8.83;7.67;;;1.20;99.90;;;;;;5039977;28;20235;-48
2021/01/21 02:38:32;;;;;;;8.00;6.70;;;2.40;99.90;;;;;;5037264;28;20800;-49
2021/01/21 02:41:00;;;;;;;7.00;5.90;;;1.10;99.90;;;;;;5038354;28;20417;-48
2021/01/21 02:43:25;;;;;;;6.90;5.97;;;1.10;99.90;;;;;;5037452;28;20414;-44
2021/01/21 02:45:51;;;;;;;8.03;6.33;;;1.10;99.90;;;;;;5037844;28;20468;-53
2021/01/21 02:48:17;;;;;;;7.37;5.87;;;1.10;99.90;;;;;;5037594;28;20290;-47
2021/01/21 02:50:42;;;;;;;8.50;7.13;;;1.10;99.90;;;;;;5036409;28;20254;-47
2021/01/21 02:53:09;;;;;;;9.77;8.10;;;1.10;99.90;;;;;;5039151;28;20239;-48
2021/01/21 02:55:44;;;;;;;10.87;8.20;;;1.00;99.90;;;;;;5036464;28;20581;-46
2021/01/21 02:58:47;;;;;;;7.07;6.30;;;1.00;99.90;;;;;;5037222;28;20437;-51
2021/01/21 03:01:15;;;;;;;7.83;6.33;;;1.00;99.90;;;;;;5037518;28;20948;-46
2021/01/21 03:03:42;;;;;;;8.07;6.50;;;1.00;99.90;;;;;;5036921;28;20484;-46
2021/01/21 03:06:09;;;;;;;6.97;6.10;;;1.00;99.90;;;;;;5035204;28;20430;-45
2021/01/21 03:08:35;;;;;;;8.73;7.03;;;1.10;99.90;;;;;;5037324;28;20557;-51
2021/01/21 03:11:08;;;;;;;8.73;6.43;;;1.10;99.90;;;;;;5037114;28;20461;-50
2021/01/21 03:13:34;;;;;;;9.23;6.87;;;1.10;99.90;;;;;;5035863;28;20450;-48
2021/01/21 03:15:59;;;;;;;6.90;5.67;;;1.00;99.90;;;;;;5036908;28;20435;-48
2021/01/21 03:18:25;;;;;;;7.40;6.37;;;0.90;99.90;;;;;;5036486;28;20208;-47
2021/01/21 03:20:50;;;;;;;6.90;5.70;;;0.80;99.90;;;;;;5038528;28;20187;-51
2021/01/21 03:23:16;;;;;;;7.50;5.80;;;0.90;99.90;;;;;;5037758;28;20651;-52
2021/01/21 03:25:41;;;;;;;6.33;5.33;;;0.90;99.90;;;;;;5038365;28;20639;-47
2021/01/21 03:28:07;;;;;;;7.40;5.87;;;0.90;99.90;;;;;;5035304;28;20754;-50
2021/01/21 03:30:32;;;;;;;8.43;6.33;;;0.90;99.90;;;;;;5039223;28;20275;-46
2021/01/21 03:32:59;;;;;;;8.50;6.83;;;1.00;99.90;;;;;;5034954;28;20279;-47
2021/01/21 03:35:25;;;;;;;7.57;6.17;;;1.00;99.90;;;;;;5035536;28;20267;-47
2021/01/21 03:37:51;;;;;;;6.83;5.70;;;1.00;99.90;;;;;;5034755;28;20446;-48
2021/01/21 03:40:16;;;;;;;7.83;6.30;;;1.00;99.90;;;;;;5035348;28;20218;-48
2021/01/21 03:42:42;;;;;;;8.30;6.43;;;1.00;99.90;;;;;;5036218;28;20656;-47
2021/01/21 03:45:08;;;;;;;8.80;6.70;;;1.00;99.90;;;;;;5039222;28;20176;-54
2021/01/21 03:47:33;;;;;;;8.80;7.23;;;1.00;99.90;;;;;;5035055;28;20222;-49
2021/01/21 03:49:59;;;;;;;9.90;7.93;;;1.00;99.90;;;;;;5033348;28;20497;-45
2021/01/21 03:52:24;;;;;;;9.27;7.60;;;1.10;99.90;;;;;;5035350;28;20207;-49
2021/01/21 03:54:50;;;;;;;9.20;7.60;;;1.10;99.90;;;;;;5036605;28;20180;-51
2021/01/21 03:57:15;;;;;;;8.73;7.43;;;1.10;99.90;;;;;;5034840;28;20179;-52
2021/01/21 03:59:41;;;;;;;10.50;7.67;;;1.10;99.90;;;;;;5034164;28;20227;-45
2021/01/21 04:02:06;;;;;;;9.20;7.83;;;1.20;99.90;;;;;;5036842;28;20196;-46
2021/01/21 04:04:32;;;;;;;10.23;8.30;;;1.10;99.90;;;;;;5035558;28;20179;-51
2021/01/21 04:06:57;;;;;;;9.30;7.70;;;1.10;99.90;;;;;;5037133;28;20183;-45
2021/01/21 04:09:23;;;;;;;10.70;8.57;;;1.20;99.90;;;;;;5034913;28;20222;-48
2021/01/21 04:11:51;;;;;;;9.90;8.63;;;1.20;99.90;;;;;;5036154;28;20684;-54
2021/01/21 04:14:16;;;;;;;12.00;9.27;;;1.20;99.90;;;;;;5035664;28;20176;-45
2021/01/21 04:16:42;;;;;;;11.10;8.30;;;1.20;99.90;;;;;;5036412;28;20453;-46
2021/01/21 04:19:07;;;;;;;11.23;8.63;;;1.10;99.90;;;;;;5035334;28;20680;-46
2021/01/21 04:21:33;;;;;;;10.93;8.40;;;1.20;99.90;;;;;;5035687;28;20179;-51
2021/01/21 04:24:01;;;;;;;10.80;8.30;;;1.30;99.90;;;;;;5033009;28;20540;-50
2021/01/21 04:26:27;;;;;;;10.73;8.27;;;1.40;99.90;;;;;;5034635;28;20191;-51
2021/01/21 04:28:53;;;;;;;9.43;7.83;;;1.50;99.90;;;;;;5034751;28;20457;-48
2021/01/21 04:31:19;;;;;;;9.03;8.00;;;1.50;99.90;;;;;;5035407;28;20204;-45
2021/01/21 04:33:45;;;;;;;7.90;6.87;;;1.60;99.90;;;;;;5031553;28;20941;-46
2021/01/21 04:36:11;;;;;;;8.30;6.87;;;1.60;99.90;;;;;;5036524;28;20414;-51
2021/01/21 04:38:36;;;;;;;7.60;6.13;;;1.60;99.90;;;;;;5033790;28;20194;-45
2021/01/21 04:41:02;;;;;;;7.30;6.10;;;1.70;99.90;;;;;;5032112;28;20191;-46
2021/01/21 04:43:28;;;;;;;8.10;5.50;;;1.70;99.90;;;;;;5035993;28;20184;-44
2021/01/21 04:45:54;;;;;;;6.47;5.80;;;1.70;99.90;;;;;;5033801;28;20443;-45
2021/01/21 04:48:20;;;;;;;7.47;6.40;;;1.80;99.90;;;;;;5034576;28;20220;-45
2021/01/21 04:50:48;;;;;;;9.53;7.67;;;1.80;99.90;;;;;;5034457;28;20470;-45
2021/01/21 04:53:15;;;;;;;6.57;5.70;;;1.80;99.90;;;;;;5036734;28;20422;-47
2021/01/21 04:55:45;;;;;;;4.63;3.83;;;1.80;99.90;;;;;;5036665;28;20419;-46
2021/01/21 04:58:24;;;;;;;5.03;3.80;;;1.80;99.90;;;;;;5034809;28;20806;-44
2021/01/21 05:00:51;;;;;;;4.60;3.50;;;1.80;99.90;;;;;;5034018;28;20403;-45
2021/01/21 05:03:17;;;;;;;3.90;3.40;;;1.80;99.90;;;;;;5032076;28;20515;-50
2021/01/21 05:05:43;;;;;;;3.47;3.17;;;1.80;99.90;;;;;;5034891;28;20481;-47
2021/01/21 05:08:09;;;;;;;3.90;3.37;;;1.70;99.90;;;;;;5034146;28;20446;-45
2021/01/21 05:10:35;;;;;;;4.17;3.40;;;1.70;99.90;;;;;;5033831;28;20179;-45
2021/01/21 05:13:01;;;;;;;4.53;3.23;;;1.80;99.90;;;;;;5035063;28;20233;-48
2021/01/21 05:15:27;;;;;;;4.10;3.70;;;1.80;99.90;;;;;;5016047;28;20806;-47
2021/01/21 05:17:53;;;;;;;4.33;3.60;;;1.90;99.90;;;;;;5035727;28;20180;-45
2021/01/21 05:20:25;;;;;;;4.67;3.33;;;1.90;99.90;;;;;;5032011;28;20201;-48
2021/01/21 05:23:02;;;;;;;3.37;3.07;;;1.90;99.90;;;;;;5034971;28;20426;-45
2021/01/21 05:25:28;;;;;;;3.97;3.03;;;1.90;99.90;;;;;;5032831;28;20426;-45
2021/01/21 05:27:56;;;;;;;3.57;3.20;;;1.90;99.90;;;;;;5037343;28;20399;-51
2021/01/21 05:30:22;;;;;;;4.00;3.40;;;1.90;99.90;;;;;;5036802;28;20504;-46
2021/01/21 05:32:50;;;;;;;3.57;3.17;;;1.80;99.90;;;;;;5037710;28;20413;-46
2021/01/21 05:35:15;;;;;;;3.50;3.20;;;1.90;99.90;;;;;;5039138;28;20426;-48
2021/01/21 05:37:44;;;;;;;4.87;4.37;;;1.90;99.90;;;;;;5037524;28;20488;-46
2021/01/21 05:40:11;;;;;;;4.37;3.90;;;2.00;99.90;;;;;;5036735;28;20229;-50
2021/01/21 05:42:37;;;;;;;5.27;4.00;;;2.00;99.90;;;;;;5037482;28;20437;-47
2021/01/21 05:45:06;;;;;;;5.43;4.30;;;2.00;99.90;;;;;;5038647;28;20968;-50
2021/01/21 05:47:32;;;;;;;5.90;4.47;;;2.00;99.90;;;;;;5019653;28;20434;-47
2021/01/21 05:49:59;;;;;;;5.80;4.37;;;2.00;99.90;;;;;;5036616;28;20474;-47
2021/01/21 05:52:27;;;;;;;6.07;5.17;;;2.00;99.90;;;;;;5036151;28;20478;-50
2021/01/21 05:54:54;;;;;;;6.53;4.77;;;2.00;99.90;;;;;;5037309;28;20422;-49
2021/01/21 05:57:20;;;;;;;5.33;3.77;;;2.00;99.90;;;;;;5038416;28;20552;-46
2021/01/21 05:59:47;;;;;;;3.87;3.43;;;1.90;99.90;;;;;;5035630;28;21030;-48
2021/01/21 06:02:14;;;;;;;4.73;4.13;;;1.80;99.90;;;;;;5036207;28;20191;-46
2021/01/21 06:04:41;;;;;;;4.73;4.20;;;1.80;99.90;;;;;;5035560;28;20513;-45
2021/01/21 06:07:09;;;;;;;4.37;3.93;;;1.80;99.90;;;;;;5036614;28;20410;-45
2021/01/21 06:09:37;;;;;;;8.60;5.73;;;1.80;99.90;;;;;;5036837;28;20873;-51
2021/01/21 06:12:04;;;;;;;8.60;6.37;;;1.70;99.90;;;;;;5034265;28;20466;-56
2021/01/21 06:14:30;;;;;;;7.33;5.80;;;1.70;99.90;;;;;;5035985;28;20518;-48
2021/01/21 06:16:56;;;;;;;7.70;5.57;;;1.60;99.90;;;;;;5035834;28;20512;-47
2021/01/21 06:19:22;;;;;;;7.07;5.63;;;1.70;99.90;;;;;;5034735;28;20200;-49
2021/01/21 06:21:55;;;;;;;5.47;4.80;;;1.70;99.90;;;;;;5035673;28;20433;-48
2021/01/21 06:24:30;;;;;;;5.80;4.50;;;1.70;99.90;;;;;;5036372;28;20199;-49
2021/01/21 06:26:58;;;;;;;7.17;5.70;;;1.70;99.90;;;;;;5038052;28;20413;-49
2021/01/21 06:29:27;;;;;;;5.80;4.63;;;1.60;99.90;;;;;;5037382;28;20433;-50
2021/01/21 06:31:55;;;;;;;4.73;4.13;;;1.60;99.90;;;;;;5037178;28;20457;-49
2021/01/21 06:34:25;;;;;;;5.77;4.80;;;1.60;99.90;;;;;;5037716;28;20414;-47
2021/01/21 06:36:53;;;;;;;6.63;5.33;;;1.60;99.90;;;;;;5036620;28;20407;-47
2021/01/21 06:39:28;;;;;;;7.17;5.70;;;1.50;99.90;;;;;;5035734;28;20487;-49
2021/01/21 06:41:57;;;;;;;7.23;5.20;;;1.50;99.90;;;;;;5036880;28;20455;-48
2021/01/21 06:44:23;;;;;;;7.73;5.70;;;1.50;99.90;;;;;;5036640;28;20453;-49
2021/01/21 06:46:52;;;;;;;7.83;5.80;;;1.40;99.90;;;;;;5035221;28;20528;-49
2021/01/21 06:49:19;;;;;;;8.27;6.30;;;1.40;99.90;;;;;;5035674;28;20444;-50
2021/01/21 06:51:48;;;;;;;8.57;6.23;;;1.40;99.90;;;;;;5036095;28;20600;-47
2021/01/21 06:54:15;;;;;;;7.43;5.70;;;1.50;99.90;;;;;;5037080;28;20430;-50
2021/01/21 06:56:40;;;;;;;8.43;6.57;;;1.50;99.90;;;;;;5037395;28;20438;-49
2021/01/21 06:59:06;;;;;;;7.70;6.23;;;1.50;99.90;;;;;;5036270;28;20462;-53
2021/01/21 07:01:32;;;;;;;8.77;6.37;;;1.50;99.90;;;;;;5021433;28;20214;-50
2021/01/21 07:03:58;;;;;;;9.57;7.47;;;1.50;99.90;;;;;;5037397;28;20196;-55
2021/01/21 07:06:24;;;;;;;11.20;9.10;;;1.50;99.90;;;;;;5035503;28;20183;-51
2021/01/21 07:09:07;;;;;;;8.57;6.60;;;1.40;99.90;;;;;;5035479;28;20520;-50
2021/01/21 07:11:34;;;;;;;5.53;4.90;;;1.40;99.90;;;;;;5036594;28;20208;-48
2021/01/21 07:14:00;;;;;;;5.33;4.80;;;1.40;99.90;;;;;;5036290;28;20415;-56
2021/01/21 07:16:26;;;;;;;4.63;4.23;;;1.40;99.90;;;;;;5036641;28;20481;-48
2021/01/21 07:18:54;;;;;;;6.73;5.10;;;1.30;99.90;;;;;;5036790;28;20290;-45
2021/01/21 07:21:24;;;;;;;5.80;5.00;;;1.30;99.90;;;;;;5036908;28;20509;-51
2021/01/21 07:23:53;;;;;;;6.93;5.40;;;1.30;99.90;;;;;;5037740;28;20426;-47
2021/01/21 07:26:28;;;;;;;7.50;5.73;;;1.30;99.90;;;;;;5037129;28;20411;-49
2021/01/21 07:29:09;;;;;;;7.07;5.80;;;1.30;99.90;;;;;;5036635;28;20442;-50
2021/01/21 07:31:52;;;;;;;9.17;7.00;;;1.40;99.90;;;;;;5036125;28;20458;-46
2021/01/21 07:34:39;;;;;;;8.17;7.10;;;1.60;99.90;;;;;;5030037;28;20449;-49
2021/01/21 07:37:12;;;;;;;9.93;7.97;;;1.80;99.90;;;;;;5031447;28;20468;-46
2021/01/21 07:39:58;;;;;;;9.87;8.00;;;1.90;99.90;;;;;;5035739;28;20438;-48
2021/01/21 07:42:33;;;;;;;8.10;6.47;;;2.10;99.90;;;;;;5036387;28;20426;-47
2021/01/21 07:45:16;;;;;;;8.63;6.80;;;2.20;99.90;;;;;;5034689;28;20933;-47
2021/01/21 07:47:43;;;;;;;9.03;7.80;;;2.30;99.90;;;;;;5037215;28;20457;-50
2021/01/21 07:50:29;;;;;;;9.17;7.40;;;2.30;99.90;;;;;;5031653;28;20966;-50
2021/01/21 07:52:56;;;;;;;8.20;6.87;;;2.40;99.90;;;;;;5035002;28;20423;-47
2021/01/21 07:55:35;;;;;;;8.50;7.60;;;2.50;99.90;;;;;;5034473;28;20426;-50
2021/01/21 07:58:13;;;;;;;9.37;7.53;;;2.60;99.90;;;;;;5036403;28;20421;-46
2021/01/21 08:00:39;;;;;;;9.33;7.47;;;2.80;99.90;;;;;;5032603;28;20445;-49
2021/01/21 08:03:04;;;;;;;7.00;6.20;;;2.90;99.90;;;;;;5032820;28;20450;-51
2021/01/21 08:05:30;;;;;;;7.27;5.80;;;3.10;99.90;;;;;;5030782;28;20175;-51
2021/01/21 08:07:56;;;;;;;7.50;6.33;;;3.30;99.90;;;;;;5033708;28;20176;-49
2021/01/21 08:10:25;;;;;;;9.23;7.97;;;3.40;99.90;;;;;;5034081;28;20552;-47
2021/01/21 08:12:57;;;;;;;8.67;6.70;;;3.40;99.90;;;;;;5034506;28;20467;-49
2021/01/21 08:15:24;;;;;;;9.63;7.23;;;3.30;99.90;;;;;;5034849;28;20192;-52
2021/01/21 08:17:50;;;;;;;7.10;5.63;;;3.30;99.90;;;;;;5035771;28;20425;-51
2021/01/21 08:20:18;;;;;;;6.70;5.93;;;3.40;99.90;;;;;;5034581;28;20211;-48
2021/01/21 08:22:59;;;;;;;6.73;5.90;;;3.70;99.90;;;;;;5034269;28;20520;-49
2021/01/21 08:25:46;;;;;;;6.60;5.50;;;4.00;99.90;;;;;;5033902;28;20199;-47
2021/01/21 08:28:17;;;;;;;5.47;4.60;;;4.70;99.90;;;;;;5032983;28;20253;-54
2021/01/21 08:30:43;;;;;;;5.57;4.60;;;6.20;99.90;;;;;;5033875;28;20190;-46
2021/01/21 08:33:17;;;;;;;5.60;4.30;;;8.80;99.90;;;;;;5033084;28;20270;-51
2021/01/21 08:35:46;;;;;;;4.33;3.83;;;11.60;99.90;;;;;;5032196;28;20172;-52
2021/01/21 08:38:14;;;;;;;4.47;4.07;;;14.40;97.70;;;;;;5031932;28;20662;-46
2021/01/21 08:40:41;;;;;;;5.70;5.20;;;16.90;93.40;;;;;;5026674;28;20286;-49
2021/01/21 08:43:07;;;;;;;7.43;6.73;;;19.30;88.60;;;;;;5031050;28;20651;-50
2021/01/21 08:45:33;;;;;;;4.30;3.90;;;21.40;80.00;;;;;;5025472;28;20656;-52
2021/01/21 08:47:59;;;;;;;4.97;4.47;;;23.00;72.50;;;;;;5029347;28;20180;-53
2021/01/21 08:50:34;;;;;;;3.92;3.63;;;24.30;65.10;;;;;;5027247;28;20176;-54
2021/01/21 08:53:04;;;;;;;3.72;3.42;;;25.50;60.70;;;;;;5024307;28;20278;-47
2021/01/21 08:55:44;;;;;;;4.50;3.83;;;26.70;57.50;;;;;;5028960;28;20176;-48
2021/01/21 08:58:12;;;;;;;4.07;3.67;;;27.80;54.40;;;;;;5030520;28;20210;-50
2021/01/21 09:00:38;;;;;;;3.90;3.60;;;29.00;51.60;;;;;;5030294;28;20172;-51
2021/01/21 09:03:04;;;;;;;3.58;3.28;;;30.00;49.00;;;;;;5032615;28;20602;-48
2021/01/21 09:05:31;;;;;;;4.13;3.83;;;30.80;46.80;;;;;;5034050;28;20184;-46
2021/01/21 09:08:23;;;;;;;4.82;4.43;;;31.30;44.80;;;;;;5034771;28;20180;-50
2021/01/21 09:10:49;;;;;;;5.57;5.07;;;31.70;42.10;;;;;;4949327;29;20191;-50
2021/01/21 09:13:19;;;;;;;4.85;4.43;;;31.90;42.00;;;;;;4937956;29;20679;-50
2021/01/21 09:15:55;;;;;;;3.75;3.45;;;32.40;40.20;;;;;;4942780;29;20199;-52
2021/01/21 09:18:22;;;;;;;3.90;3.60;;;33.00;39.60;;;;;;4946138;29;20266;-51
2021/01/21 09:20:48;;;;;;;4.57;4.18;;;33.80;38.80;;;;;;4953065;29;20190;-53
2021/01/21 09:23:20;;;;;;;3.75;3.45;;;34.20;37.60;;;;;;4951820;29;20192;-55
2021/01/21 09:25:49;;;;;;;3.88;3.58;;;34.70;36.90;;;;;;4941353;29;20183;-54
2021/01/21 09:28:16;;;;;;;4.20;3.80;;;35.20;36.20;;;;;;4929157;29;20237;-56
2021/01/21 09:30:44;;;;;;;3.60;3.33;;;35.50;35.30;;;;;;4953574;29;20650;-54
2021/01/21 09:33:11;;;;;;;3.70;3.40;;;36.00;35.10;;;;;;4942469;29;20532;-53
2021/01/21 09:35:41;;;;;;;3.70;3.38;;;36.30;33.90;;;;;;4937005;29;20668;-54
2021/01/21 09:38:07;;;;;;;3.80;3.50;;;36.30;33.50;;;;;;4940496;29;20207;-54
2021/01/21 09:40:34;;;;;;;5.13;4.15;;;36.00;33.10;;;;;;4934145;29;20198;-51
2021/01/21 09:43:03;;;;;;;4.70;3.70;;;34.90;32.90;;;;;;4935420;29;20250;-54
2021/01/21 09:45:30;;;;;;;5.15;4.68;;;33.80;34.10;;;;;;4943809;29;20687;-53
2021/01/21 09:47:56;;;;;;;4.10;3.75;;;33.20;34.40;;;;;;5000113;28;20180;-49
2021/01/21 09:50:23;;;;;;;4.47;4.07;;;32.90;34.90;;;;;;5032636;28;20640;-51
2021/01/21 09:52:49;;;;;;;4.20;3.80;;;32.30;34.80;;;;;;5032875;28;20640;-49
2021/01/21 09:55:15;;;;;;;4.68;3.72;;;31.60;34.60;;;;;;5032705;28;20247;-57
2021/01/21 09:57:41;;;;;;;5.45;4.63;;;30.50;35.60;;;;;;5032569;28;20532;-54
2021/01/21 10:00:09;;;;;;;4.80;4.40;;;29.90;36.30;;;;;;5028303;28;20208;-49
2021/01/21 10:02:34;;;;;;;4.95;4.45;;;29.30;36.90;;;;;;5029111;28;20208;-49
2021/01/21 10:05:00;;;;;;;4.88;4.38;;;28.90;37.70;;;;;;5031877;28;20539;-55
2021/01/21 10:07:25;;;;;;;4.45;4.05;;;29.20;38.00;;;;;;5032596;28;20644;-54
2021/01/21 10:09:51;;;;;;;4.60;4.20;;;30.20;37.50;;;;;;5032183;28;20199;-49
2021/01/21 10:12:16;;;;;;;5.22;4.50;;;31.40;36.70;;;;;;5031685;28;20223;-54
2021/01/21 10:14:43;;;;;;;4.78;4.28;;;32.70;35.80;;;;;;5029622;28;20188;-48
2021/01/21 10:17:09;;;;;;;5.20;4.70;;;33.60;34.80;;;;;;5034205;28;20242;-48
2021/01/21 10:19:35;;;;;;;4.72;4.28;;;34.60;34.00;;;;;;5035919;28;20609;-51
2021/01/21 10:22:00;;;;;;;5.13;4.63;;;35.40;33.60;;;;;;5036629;28;20298;-54
2021/01/21 10:24:27;;;;;;;7.60;4.40;;;36.00;33.00;;;;;;5034454;28;20321;-50
2021/01/21 10:26:53;;;;;;;4.65;4.25;;;36.50;32.30;;;;;;5036343;28;20199;-52
2021/01/21 10:29:19;;;;;;;4.70;4.13;;;36.90;31.80;;;;;;5036341;28;20195;-55
2021/01/21 10:31:45;;;;;;;3.85;3.55;;;36.90;30.80;;;;;;5035646;28;20179;-50
2021/01/21 10:34:11;;;;;;;4.32;3.92;;;36.90;31.30;;;;;;5036485;28;20182;-46
2021/01/21 10:36:36;;;;;;;3.95;3.58;;;37.00;30.90;;;;;;5034898;28;20187;-53
2021/01/21 10:39:03;;;;;;;4.80;4.40;;;37.10;30.80;;;;;;5035573;28;20912;-49
2021/01/21 10:41:29;;;;;;;4.25;3.85;;;37.00;30.30;;;;;;5032124;28;20200;-47
2021/01/21 10:43:54;;;;;;;4.38;3.97;;;36.60;30.90;;;;;;5036007;28;20225;-50
2021/01/21 10:46:20;;;;;;;5.32;4.30;;;36.50;30.60;;;;;;5035860;28;20194;-50
2021/01/21 10:48:45;;;;;;;4.22;3.92;;;36.00;30.60;;;;;;5035484;28;20195;-51
2021/01/21 10:51:11;;;;;;;4.50;4.10;;;35.70;30.70;;;;;;5035012;28;20635;-48
2021/01/21 10:53:36;;;;;;;4.30;3.90;;;35.80;31.30;;;;;;5036752;28;20163;-51
2021/01/21 10:56:02;;;;;;;4.65;4.25;;;36.00;30.60;;;;;;5035653;28;20184;-50
2021/01/21 10:58:27;;;;;;;5.10;4.60;;;35.50;30.00;;;;;;5035435;28;20598;-52
2021/01/21 11:00:53;;;;;;;4.28;3.88;;;35.10;30.90;;;;;;5034894;28;20200;-55
2021/01/21 11:03:19;;;;;;;4.80;4.40;;;35.00;31.50;;;;;;5035811;28;20208;-51
2021/01/21 11:05:45;;;;;;;4.90;4.18;;;34.80;31.60;;;;;;5035756;28;20164;-56
2021/01/21 11:08:12;;;;;;;5.00;4.50;;;34.90;31.20;;;;;;5035293;28;20211;-56
2021/01/21 11:10:39;;;;;;;4.50;4.10;;;34.70;31.60;;;;;;5035182;28;20218;-57
2021/01/21 11:13:05;;;;;;;4.28;3.90;;;35.30;31.70;;;;;;5035305;28;20183;-53
2021/01/21 11:15:31;;;;;;;5.32;4.13;;;36.00;30.90;;;;;;5032168;28;20195;-54
2021/01/21 11:17:57;;;;;;;4.20;3.80;;;36.60;30.50;;;;;;5034454;28;20184;-47
2021/01/21 11:20:24;;;;;;;5.30;4.75;;;36.00;30.30;;;;;;5036226;28;20501;-55
2021/01/21 11:22:50;;;;;;;5.70;5.03;;;34.30;30.70;;;;;;5034573;28;20608;-49
2021/01/21 11:25:16;;;;;;;6.28;5.20;;;32.10;32.30;;;;;;5035222;28;20671;-51
2021/01/21 11:27:41;;;;;;;5.55;4.93;;;29.80;34.50;;;;;;5034425;28;20169;-53
2021/01/21 11:30:10;;;;;;;6.10;5.50;;;27.60;36.40;;;;;;5033776;28;20274;-50
2021/01/21 11:32:35;;;;;;;6.65;5.50;;;25.70;39.00;;;;;;5035932;28;20210;-55
2021/01/21 11:35:02;;;;;;;5.90;5.30;;;23.60;41.20;;;;;;5034507;28;20413;-50
2021/01/21 11:37:27;;;;;;;6.60;5.90;;;21.70;43.30;;;;;;5033971;28;20176;-49
2021/01/21 11:39:54;;;;;;;7.07;5.47;;;20.00;45.30;;;;;;5035418;28;20207;-45
2021/01/21 11:42:20;;;;;;;6.47;5.83;;;18.70;47.90;;;;;;5035108;28;20658;-48
2021/01/21 11:44:46;;;;;;;7.23;6.00;;;17.40;49.80;;;;;;5035105;28;20177;-52
2021/01/21 11:47:11;;;;;;;8.93;6.23;;;16.40;51.40;;;;;;5035120;28;20176;-49
2021/01/21 11:49:37;;;;;;;6.83;5.77;;;15.70;53.80;;;;;;5025415;28;20196;-56
2021/01/21 11:52:03;;;;;;;7.33;6.20;;;15.00;55.00;;;;;;5034600;28;20185;-48
2021/01/21 11:54:29;;;;;;;6.70;6.00;;;14.60;56.50;;;;;;5034658;28;20634;-47
2021/01/21 11:56:55;;;;;;;6.77;6.03;;;14.00;57.90;;;;;;5035078;28;20237;-53
2021/01/21 11:59:20;;;;;;;6.73;5.57;;;13.50;59.60;;;;;;5034958;28;20189;-56
2021/01/21 12:01:46;;;;;;;8.33;5.83;;;13.10;61.60;;;;;;5035095;28;20548;-57
2021/01/21 12:04:12;;;;;;;6.80;5.57;;;12.90;63.20;;;;;;5034935;28;20176;-47
2021/01/21 12:06:37;;;;;;;7.10;5.70;;;12.80;64.80;;;;;;5034853;28;20171;-49
2021/01/21 12:09:04;;;;;;;6.83;5.70;;;12.70;66.10;;;;;;5036542;28;20203;-50
2021/01/21 12:11:30;;;;;;;8.13;6.73;;;12.50;67.90;;;;;;5034363;28;20179;-54
2021/01/21 12:13:56;;;;;;;9.23;6.60;;;12.30;69.60;;;;;;5034718;28;20179;-45
2021/01/21 12:16:22;;;;;;;6.77;6.00;;;12.30;69.70;;;;;;5034460;28;20222;-55
2021/01/21 12:18:47;;;;;;;7.00;6.30;;;11.70;69.90;;;;;;5034278;28;20206;-57
2021/01/21 12:21:13;;;;;;;10.13;6.53;;;11.10;73.20;;;;;;5034390;28;20283;-56
2021/01/21 12:23:38;;;;;;;7.80;6.80;;;10.90;75.60;;;;;;5035431;28;20294;-48
2021/01/21 12:26:06;;;;;;;6.97;6.27;;;10.90;77.50;;;;;;5034367;28;20184;-47
2021/01/21 12:28:35;;;;;;;8.90;6.63;;;11.00;78.00;;;;;;5034343;28;20218;-50
2021/01/21 12:31:02;;;;;;;9.50;7.17;;;11.00;79.40;;;;;;5034304;28;20179;-55
2021/01/21 12:33:27;;;;;;;7.30;6.50;;;10.90;80.60;;;;;;5033664;28;20188;-48
2021/01/21 12:35:54;;;;;;;8.27;6.70;;;10.80;82.50;;;;;;5034011;28;20517;-49
2021/01/21 12:38:19;;;;;;;10.73;7.67;;;10.90;83.70;;;;;;5015714;28;20206;-50
2021/01/21 12:40:45;;;;;;;8.83;7.80;;;11.00;84.40;;;;;;5034344;28;20176;-49
2021/01/21 12:43:11;;;;;;;9.00;7.50;;;11.00;84.70;;;;;;5034319;28;20183;-57
2021/01/21 12:45:37;;;;;;;9.57;7.97;;;11.00;85.10;;;;;;5034171;28;20176;-50
2021/01/21 12:48:03;;;;;;;10.50;7.80;;;10.90;85.30;;;;;;5033929;28;20249;-47
2021/01/21 12:50:29;;;;;;;10.13;7.33;;;10.50;85.60;;;;;;5032865;28;20276;-56
2021/01/21 12:52:54;;;;;;;11.97;8.27;;;10.40;87.10;;;;;;5033944;28;20215;-58
2021/01/21 12:55:20;;;;;;;10.10;8.40;;;10.10;88.80;;;;;;5032779;28;20191;-47
2021/01/21 12:57:47;;;;;;;11.50;7.70;;;10.10;89.70;;;;;;5024055;28;20184;-51